Time;durP1;ratioP1;P1;durP2;ratioP2;P2;SDS_P1;SDS_P2;PMS_P1;PMS_P2;Temp;Humidity;BMP_temperature;BMP_pressure;BME280_temperature;BME280_humidity;BME280_pressure;Samples;Min_cycle;Max_cycle;Signal;HPM_P1;HPM_P2
2022/09/13 00:01:02;;;;;;;5.47;3.00;;;16.50;99.90;;;;;;6118471;23;20018;-92
2022/09/13 00:03:28;;;;;;;4.47;2.88;;;16.50;99.90;;;;;;6119369;23;20002;-87
2022/09/13 00:05:54;;;;;;;4.65;2.97;;;16.50;99.90;;;;;;6118730;23;20010;-91
2022/09/13 00:08:20;;;;;;;7.85;3.30;;;16.50;99.90;;;;;;6119845;23;20012;-92
2022/09/13 00:10:48;;;;;;;3.05;2.25;;;16.50;99.90;;;;;;6118879;23;20017;-92
2022/09/13 00:13:16;;;;;;;4.50;2.63;;;16.50;99.90;;;;;;6117914;23;20002;-89
2022/09/13 00:15:49;;;;;;;4.03;3.00;;;16.40;99.90;;;;;;6118526;23;20010;-91
2022/09/13 00:18:16;;;;;;;7.45;3.35;;;16.40;99.90;;;;;;6119412;23;20080;-91
2022/09/13 00:20:48;;;;;;;4.85;2.95;;;16.40;99.90;;;;;;6117798;23;20002;-90
2022/09/13 00:23:14;;;;;;;14.82;3.33;;;16.40;99.90;;;;;;6118687;23;19998;-92
2022/09/13 00:25:48;;;;;;;7.25;3.42;;;16.40;99.90;;;;;;6118108;23;20029;-91
2022/09/13 00:28:14;;;;;;;7.45;3.38;;;16.40;99.90;;;;;;6119563;23;20010;-90
2022/09/13 00:30:51;;;;;;;5.82;3.13;;;16.40;99.90;;;;;;6117335;23;20010;-88
2022/09/13 00:33:16;;;;;;;4.50;3.28;;;16.40;99.90;;;;;;6119622;23;20006;-90
2022/09/13 00:35:51;;;;;;;5.18;3.13;;;16.40;99.90;;;;;;6118204;23;20366;-89
2022/09/13 00:38:17;;;;;;;5.35;2.58;;;16.30;99.90;;;;;;6120088;23;20006;-91
2022/09/13 00:40:45;;;;;;;2.55;2.30;;;16.30;99.90;;;;;;6118054;23;20300;-92
2022/09/13 00:43:39;;;;;;;5.15;3.30;;;16.20;99.90;;;;;;6119008;23;20077;-89
2022/09/13 00:46:06;;;;;;;2.78;2.47;;;16.10;99.90;;;;;;6118500;23;20002;-88
2022/09/13 00:48:33;;;;;;;4.85;2.58;;;16.10;99.90;;;;;;6119166;23;20009;-90
2022/09/13 00:51:01;;;;;;;6.90;2.83;;;16.00;99.90;;;;;;6118402;23;20048;-91
2022/09/13 00:53:32;;;;;;;6.18;2.92;;;15.90;99.90;;;;;;6119096;23;20379;-89
2022/09/13 00:56:16;;;;;;;2.38;2.17;;;15.80;99.90;;;;;;6117404;23;20041;-91
2022/09/13 00:58:54;;;;;;;6.75;3.45;;;15.80;99.90;;;;;;6117948;23;20051;-90
2022/09/13 01:01:24;;;;;;;3.83;2.42;;;15.70;99.90;;;;;;6117490;23;20009;-88
2022/09/13 01:03:50;;;;;;;6.60;2.90;;;15.60;99.90;;;;;;6118498;23;20013;-89
2022/09/13 01:06:19;;;;;;;7.10;3.38;;;15.50;99.90;;;;;;6117676;23;20002;-89
2022/09/13 01:08:52;;;;;;;4.43;3.33;;;15.50;99.90;;;;;;6117646;23;20013;-92
2022/09/13 01:11:54;;;;;;;10.55;3.55;;;15.40;99.90;;;;;;6117725;23;20010;-88
2022/09/13 01:14:22;;;;;;;3.35;3.03;;;15.40;99.90;;;;;;6122574;23;20002;-90
2022/09/13 01:16:48;;;;;;;7.07;3.75;;;15.30;99.90;;;;;;6118058;23;20020;-91
2022/09/13 01:19:15;;;;;;;6.35;3.88;;;15.20;99.90;;;;;;6117795;23;20002;-90
2022/09/13 01:22:05;;;;;;;6.03;3.50;;;15.20;99.90;;;;;;6118430;23;20001;-92
2022/09/13 01:24:59;;;;;;;6.00;3.67;;;15.20;99.90;;;;;;6119609;23;20009;-83
2022/09/13 01:27:57;;;;;;;5.80;3.70;;;15.40;99.90;;;;;;6117711;23;20477;-85
2022/09/13 01:30:36;;;;;;;5.72;4.20;;;15.80;99.90;;;;;;6136134;23;20088;-88
2022/09/13 01:33:10;;;;;;;6.07;3.85;;;16.10;99.90;;;;;;6119959;23;20002;-89
2022/09/13 01:36:08;;;;;;;6.07;4.78;;;16.20;99.90;;;;;;6118353;23;20032;-85
2022/09/13 01:38:43;;;;;;;9.27;5.20;;;16.40;99.90;;;;;;6120165;23;20382;-84
2022/09/13 01:41:49;;;;;;;82.60;8.35;;;16.60;99.90;;;;;;6117384;23;20362;-90
2022/09/13 01:44:39;;;;;;;7.28;4.60;;;16.80;99.90;;;;;;6119779;23;19998;-90
2022/09/13 01:47:40;;;;;;;6.45;4.32;;;16.80;99.90;;;;;;6118639;23;20326;-85
2022/09/13 01:50:06;;;;;;;4.95;4.47;;;16.90;99.90;;;;;;6132013;23;20006;-84
2022/09/13 01:53:15;;;;;;;7.97;4.68;;;17.00;99.90;;;;;;6119548;23;20002;-89
2022/09/13 01:56:08;;;;;;;5.20;4.35;;;17.00;99.90;;;;;;6102222;23;20018;-89
2022/09/13 01:58:37;;;;;;;6.05;4.50;;;17.10;99.90;;;;;;6117996;23;20010;-90
2022/09/13 02:01:17;;;;;;;6.72;4.35;;;17.20;99.90;;;;;;6119291;23;20006;-90
2022/09/13 02:03:58;;;;;;;9.30;5.97;;;17.20;99.90;;;;;;6119496;23;20002;-88
2022/09/13 02:06:30;;;;;;;8.70;4.93;;;17.30;99.90;;;;;;6118809;23;20423;-82
2022/09/13 02:09:10;;;;;;;7.30;5.63;;;17.40;99.90;;;;;;6118921;23;20009;-87
2022/09/13 02:11:39;;;;;;;7.43;5.18;;;17.50;99.90;;;;;;6118374;23;20008;-90
2022/09/13 02:14:17;;;;;;;8.15;5.00;;;17.70;99.90;;;;;;6093746;23;20479;-82
2022/09/13 02:16:56;;;;;;;11.57;5.38;;;17.70;99.90;;;;;;6118261;23;20002;-85
2022/09/13 02:19:34;;;;;;;11.60;5.65;;;17.80;99.90;;;;;;6118837;23;19998;-84
2022/09/13 02:22:02;;;;;;;10.90;5.55;;;17.90;99.90;;;;;;6118041;23;20081;-87
2022/09/13 02:24:39;;;;;;;10.93;6.03;;;17.90;99.90;;;;;;6121705;23;20477;-85
2022/09/13 02:27:16;;;;;;;12.38;7.35;;;17.90;99.90;;;;;;6118865;23;20006;-88
2022/09/13 02:29:46;;;;;;;7.68;5.93;;;17.90;99.90;;;;;;6117715;23;20059;-85
2022/09/13 02:32:16;;;;;;;9.75;6.22;;;17.90;99.90;;;;;;6119215;23;20168;-88
2022/09/13 02:34:52;;;;;;;10.55;5.38;;;17.90;99.90;;;;;;6118727;23;20033;-89
2022/09/13 02:37:19;;;;;;;7.32;5.63;;;17.90;99.90;;;;;;6118191;23;20076;-88
2022/09/13 02:40:07;;;;;;;15.63;6.00;;;18.00;99.90;;;;;;6118759;23;20024;-89
2022/09/13 02:42:56;;;;;;;6.97;5.28;;;17.90;99.90;;;;;;6118352;23;20010;-84
2022/09/13 02:45:28;;;;;;;9.18;5.50;;;17.90;99.90;;;;;;6119086;23;20029;-85
2022/09/13 02:47:59;;;;;;;10.77;5.20;;;17.90;99.90;;;;;;6117763;23;20009;-83
2022/09/13 02:50:46;;;;;;;8.25;5.55;;;17.80;99.90;;;;;;6118220;23;20432;-84
2022/09/13 02:53:19;;;;;;;7.50;4.93;;;17.90;99.90;;;;;;6118760;23;20465;-88
2022/09/13 02:56:18;;;;;;;13.45;6.03;;;17.80;99.90;;;;;;6117409;23;20022;-82
2022/09/13 02:58:48;;;;;;;10.05;6.43;;;17.90;99.90;;;;;;6117995;23;20002;-87
2022/09/13 03:01:14;;;;;;;7.93;5.78;;;17.90;99.90;;;;;;6117007;23;20008;-85
2022/09/13 03:03:39;;;;;;;12.10;5.45;;;17.80;99.90;;;;;;6118829;23;20013;-83
2022/09/13 03:06:05;;;;;;;6.72;5.68;;;17.80;99.90;;;;;;6117514;23;20002;-87
2022/09/13 03:08:32;;;;;;;9.10;4.93;;;17.90;99.90;;;;;;6119514;23;20431;-86
2022/09/13 03:11:17;;;;;;;10.40;4.75;;;17.80;99.90;;;;;;6116798;23;20067;-88
2022/09/13 03:14:11;;;;;;;7.05;5.07;;;17.90;99.90;;;;;;6119101;23;20334;-86
2022/09/13 03:17:06;;;;;;;12.40;6.60;;;17.90;99.90;;;;;;6117068;23;20076;-82
2022/09/13 03:19:43;;;;;;;7.55;5.68;;;17.90;99.90;;;;;;6118621;23;20002;-92
2022/09/13 03:22:48;;;;;;;6.47;5.30;;;17.80;99.90;;;;;;6118442;23;19998;-88
2022/09/13 03:25:26;;;;;;;9.20;5.15;;;17.80;99.90;;;;;;6119594;23;20006;-89
2022/09/13 03:28:02;;;;;;;10.95;5.43;;;17.90;99.90;;;;;;6117551;23;20002;-89
2022/09/13 03:30:31;;;;;;;20.85;5.75;;;17.80;99.90;;;;;;6118989;23;20006;-88
2022/09/13 03:33:23;;;;;;;9.50;5.07;;;17.80;99.90;;;;;;6118032;23;20372;-88
2022/09/13 03:36:03;;;;;;;5.80;4.85;;;17.80;99.90;;;;;;6118732;23;19998;-89
2022/09/13 03:38:36;;;;;;;9.77;5.57;;;17.80;99.90;;;;;;6119502;23;20059;-88
2022/09/13 03:41:18;;;;;;;6.95;5.45;;;17.80;99.90;;;;;;6118442;23;20316;-88
2022/09/13 03:43:57;;;;;;;11.00;5.10;;;17.70;99.90;;;;;;6118899;23;19998;-90
2022/09/13 03:46:33;;;;;;;13.00;5.53;;;17.60;99.90;;;;;;6117985;23;20005;-87
2022/09/13 03:49:11;;;;;;;8.00;5.60;;;17.60;99.90;;;;;;6118222;23;20003;-88
2022/09/13 03:51:40;;;;;;;7.65;5.30;;;17.60;99.90;;;;;;6118324;23;20013;-88
2022/09/13 03:54:11;;;;;;;5.93;5.10;;;17.60;99.90;;;;;;6119721;23;20006;-85
2022/09/13 03:56:37;;;;;;;6.53;5.30;;;17.60;99.90;;;;;;6118987;23;20021;-89
2022/09/13 03:59:02;;;;;;;15.60;5.13;;;17.70;99.90;;;;;;6116792;23;20033;-89
2022/09/13 04:01:28;;;;;;;7.35;5.15;;;17.70;99.90;;;;;;6118621;23;20006;-86
2022/09/13 04:03:54;;;;;;;6.82;5.70;;;17.70;99.90;;;;;;6118243;23;20028;-86
2022/09/13 04:06:20;;;;;;;7.22;4.93;;;17.70;99.90;;;;;;6117154;23;20055;-87
2022/09/13 04:08:45;;;;;;;6.18;5.00;;;17.80;99.90;;;;;;6119534;23;20002;-89
2022/09/13 04:11:11;;;;;;;10.23;4.90;;;17.80;99.90;;;;;;6118703;23;20026;-87
2022/09/13 04:13:37;;;;;;;6.97;4.85;;;17.80;99.90;;;;;;6118667;23;19994;-86
2022/09/13 04:16:05;;;;;;;7.75;4.93;;;17.80;99.90;;;;;;6117526;23;20431;-81
2022/09/13 04:18:30;;;;;;;6.97;4.95;;;17.80;99.90;;;;;;6117640;23;20445;-88
2022/09/13 04:21:00;;;;;;;9.88;4.53;;;17.80;99.90;;;;;;6118687;23;20006;-86
2022/09/13 04:23:27;;;;;;;7.68;5.00;;;17.90;99.90;;;;;;6118150;23;20006;-88
2022/09/13 04:25:53;;;;;;;12.52;5.20;;;17.90;99.90;;;;;;6116730;23;19998;-90
2022/09/13 04:28:20;;;;;;;5.50;4.60;;;17.90;99.90;;;;;;6117071;23;20013;-87
2022/09/13 04:30:47;;;;;;;10.43;6.05;;;17.90;99.90;;;;;;6118523;23;20010;-91
2022/09/13 04:33:13;;;;;;;7.95;4.78;;;17.90;99.90;;;;;;6118029;23;20458;-89
2022/09/13 04:35:39;;;;;;;6.00;5.07;;;17.90;99.90;;;;;;6118572;23;20425;-85
2022/09/13 04:38:06;;;;;;;8.60;5.18;;;17.80;99.90;;;;;;6116479;23;20006;-88
2022/09/13 04:40:33;;;;;;;6.00;5.20;;;17.80;99.90;;;;;;6117474;23;20044;-86
2022/09/13 04:43:03;;;;;;;5.57;4.60;;;17.80;99.90;;;;;;6116128;23;20341;-85
2022/09/13 04:45:32;;;;;;;7.50;5.30;;;17.80;99.90;;;;;;6117185;23;20080;-88
2022/09/13 04:47:57;;;;;;;9.63;5.70;;;17.80;99.90;;;;;;6116112;23;20006;-84
2022/09/13 04:50:24;;;;;;;5.43;4.80;;;17.90;99.90;;;;;;6114064;23;20052;-86
2022/09/13 04:52:55;;;;;;;8.18;5.60;;;18.00;99.90;;;;;;6112520;23;20006;-88
2022/09/13 04:55:21;;;;;;;8.75;6.20;;;18.00;99.90;;;;;;6115541;23;20021;-84
2022/09/13 04:57:55;;;;;;;10.43;6.72;;;17.90;99.90;;;;;;6118159;23;20327;-87
2022/09/13 05:00:21;;;;;;;6.72;5.22;;;17.70;99.90;;;;;;6117265;23;20013;-90
2022/09/13 05:02:46;;;;;;;9.90;6.30;;;17.60;99.90;;;;;;6119001;23;20323;-90
2022/09/13 05:05:12;;;;;;;7.85;6.78;;;17.50;99.90;;;;;;6117801;23;20029;-89
2022/09/13 05:07:38;;;;;;;9.55;6.28;;;17.40;99.90;;;;;;6115262;23;20016;-87
2022/09/13 05:10:04;;;;;;;10.75;6.03;;;17.30;99.90;;;;;;6093348;23;20016;-88
2022/09/13 05:12:30;;;;;;;8.07;5.97;;;17.20;99.90;;;;;;6117139;23;20002;-89
2022/09/13 05:14:58;;;;;;;8.88;7.05;;;17.20;99.90;;;;;;6118334;23;20428;-90
2022/09/13 05:17:23;;;;;;;7.53;6.45;;;17.10;99.90;;;;;;6117467;23;20010;-90
2022/09/13 05:19:52;;;;;;;7.90;6.07;;;17.10;99.90;;;;;;6119208;23;20002;-89
2022/09/13 05:22:18;;;;;;;8.50;6.18;;;17.10;99.90;;;;;;6117924;23;20002;-89
2022/09/13 05:24:43;;;;;;;6.97;6.20;;;17.10;99.90;;;;;;6119110;23;20112;-89
2022/09/13 05:27:10;;;;;;;9.25;6.47;;;17.10;99.90;;;;;;6117447;23;20085;-90
2022/09/13 05:29:35;;;;;;;8.55;6.30;;;17.10;99.90;;;;;;6119508;23;20077;-88
2022/09/13 05:32:01;;;;;;;8.18;6.70;;;17.10;99.90;;;;;;6117301;23;20033;-91
2022/09/13 05:34:26;;;;;;;7.53;6.05;;;17.10;99.90;;;;;;6092315;23;20068;-88
2022/09/13 05:36:52;;;;;;;7.55;6.13;;;17.10;99.90;;;;;;6090834;23;20044;-87
2022/09/13 05:39:18;;;;;;;11.55;6.15;;;17.10;99.90;;;;;;6119414;23;19998;-91
2022/09/13 05:41:44;;;;;;;10.65;6.25;;;17.10;99.90;;;;;;6118206;23;20017;-89
2022/09/13 05:44:10;;;;;;;8.13;5.85;;;17.10;99.90;;;;;;6119309;23;20014;-89
2022/09/13 05:46:36;;;;;;;6.90;6.07;;;17.10;99.90;;;;;;6118450;23;20006;-87
2022/09/13 05:49:01;;;;;;;10.05;6.00;;;17.10;99.90;;;;;;6119671;23;20387;-87
2022/09/13 05:51:27;;;;;;;11.32;6.18;;;17.20;99.90;;;;;;6118057;23;20013;-89
2022/09/13 05:53:59;;;;;;;7.97;5.53;;;17.30;99.90;;;;;;6092524;23;20501;-90
2022/09/13 05:56:27;;;;;;;5.50;4.85;;;17.20;99.90;;;;;;6119627;23;20068;-82
2022/09/13 05:58:57;;;;;;;8.98;5.65;;;17.30;99.90;;;;;;6120291;23;20020;-88
2022/09/13 06:01:24;;;;;;;9.82;6.20;;;17.20;99.90;;;;;;6120160;23;20010;-86
2022/09/13 06:03:52;;;;;;;7.30;5.13;;;17.30;99.90;;;;;;6119412;23;20006;-89
2022/09/13 06:06:19;;;;;;;10.13;6.45;;;17.40;99.90;;;;;;6120735;23;20009;-89
2022/09/13 06:08:45;;;;;;;5.97;5.38;;;17.30;99.90;;;;;;6119361;23;20081;-91
2022/09/13 06:11:13;;;;;;;10.73;6.00;;;17.30;99.90;;;;;;6120138;23;20028;-92
2022/09/13 06:13:40;;;;;;;6.93;5.03;;;17.40;99.90;;;;;;6119236;23;20032;-90
2022/09/13 06:16:08;;;;;;;10.30;5.32;;;17.40;99.90;;;;;;6120357;23;20376;-89
2022/09/13 06:18:37;;;;;;;9.90;5.55;;;17.40;99.90;;;;;;6119445;23;20012;-90
2022/09/13 06:21:08;;;;;;;8.07;5.43;;;17.40;99.90;;;;;;6120467;23;20002;-87
2022/09/13 06:23:34;;;;;;;6.38;4.57;;;17.50;99.90;;;;;;6119784;23;20297;-91
2022/09/13 06:26:01;;;;;;;7.18;5.07;;;17.50;99.90;;;;;;6118425;23;20045;-86
2022/09/13 06:28:26;;;;;;;11.80;5.47;;;17.50;99.90;;;;;;6118076;23;20187;-90
2022/09/13 06:31:02;;;;;;;5.90;4.85;;;17.60;99.90;;;;;;6120603;23;20075;-90
2022/09/13 06:33:28;;;;;;;8.98;5.40;;;17.60;99.90;;;;;;6118763;23;20366;-86
2022/09/13 06:36:00;;;;;;;7.72;4.78;;;17.60;99.90;;;;;;6119863;23;20002;-86
2022/09/13 06:38:25;;;;;;;7.70;5.50;;;17.60;99.90;;;;;;6119898;23;20065;-90
2022/09/13 06:41:06;;;;;;;8.32;4.88;;;17.60;99.90;;;;;;6119349;23;20011;-86
2022/09/13 06:43:32;;;;;;;5.45;4.88;;;17.70;99.90;;;;;;6118701;23;20037;-91
2022/09/13 06:46:06;;;;;;;6.85;5.28;;;17.70;99.90;;;;;;6119294;23;20369;-93
2022/09/13 06:48:37;;;;;;;8.13;5.30;;;17.60;99.90;;;;;;6117797;23;20036;-92
2022/09/13 06:51:06;;;;;;;6.53;4.70;;;17.70;99.90;;;;;;6119004;23;20412;-92
2022/09/13 06:53:33;;;;;;;7.38;4.93;;;17.70;99.90;;;;;;6118360;23;20077;-92
2022/09/13 06:56:09;;;;;;;5.82;4.45;;;17.70;99.90;;;;;;6119243;23;20091;-92
2022/09/13 06:58:36;;;;;;;7.82;5.20;;;17.70;99.90;;;;;;6119912;23;20330;-86
2022/09/13 07:01:17;;;;;;;4.50;3.83;;;17.70;99.90;;;;;;6121123;23;20008;-93
2022/09/13 07:03:58;;;;;;;5.15;4.40;;;17.70;99.90;;;;;;6119426;23;20498;-92
2022/09/13 07:06:26;;;;;;;5.38;4.47;;;17.70;99.90;;;;;;6120597;23;20005;-93
2022/09/13 07:08:52;;;;;;;6.22;4.43;;;17.80;99.90;;;;;;6119791;23;19998;-90
2022/09/13 07:11:20;;;;;;;6.45;3.88;;;17.80;99.90;;;;;;6119863;23;20010;-93
2022/09/13 07:13:54;;;;;;;6.43;4.32;;;17.80;99.90;;;;;;6120198;23;20001;-92
2022/09/13 07:16:23;;;;;;;5.65;4.35;;;17.80;99.90;;;;;;6120951;23;20348;-89
2022/09/13 07:18:52;;;;;;;8.68;4.32;;;17.90;99.90;;;;;;6119486;23;20463;-90
2022/09/13 07:21:18;;;;;;;9.98;4.28;;;18.00;99.90;;;;;;6120701;23;20058;-92
2022/09/13 07:23:44;;;;;;;7.00;4.38;;;18.10;99.90;;;;;;6119636;23;20085;-92
2022/09/13 07:26:09;;;;;;;10.35;4.70;;;18.20;99.90;;;;;;6120242;23;20006;-92
2022/09/13 07:28:37;;;;;;;6.68;5.15;;;18.30;99.90;;;;;;6119567;23;20010;-83
2022/09/13 07:31:11;;;;;;;5.78;3.65;;;18.40;99.90;;;;;;6120607;23;20060;-89
2022/09/13 07:33:39;;;;;;;8.02;4.32;;;18.50;99.90;;;;;;6119422;23;20002;-86
2022/09/13 07:36:05;;;;;;;6.50;3.67;;;18.50;99.90;;;;;;6120496;23;20093;-90
2022/09/13 07:38:35;;;;;;;6.57;3.88;;;18.60;99.90;;;;;;6119667;23;20067;-86
2022/09/13 07:41:05;;;;;;;14.77;4.05;;;18.70;99.90;;;;;;6120732;23;20069;-92
2022/09/13 07:43:34;;;;;;;5.32;3.78;;;18.80;99.90;;;;;;6119641;23;20023;-89
2022/09/13 07:46:05;;;;;;;5.05;3.80;;;18.90;99.90;;;;;;6120397;23;20008;-91
2022/09/13 07:48:32;;;;;;;9.30;3.50;;;18.90;99.90;;;;;;6119145;23;20013;-91
2022/09/13 07:51:07;;;;;;;9.90;3.38;;;19.00;99.90;;;;;;6120117;23;20420;-91
2022/09/13 07:53:35;;;;;;;6.38;4.20;;;19.00;99.90;;;;;;6116542;23;20017;-89
2022/09/13 07:56:08;;;;;;;12.63;3.85;;;19.10;99.90;;;;;;6118990;23;20038;-91
2022/09/13 07:58:35;;;;;;;4.50;3.72;;;19.10;99.90;;;;;;6119408;23;20331;-91
2022/09/13 08:01:07;;;;;;;5.07;3.60;;;19.10;99.90;;;;;;6119600;23;20055;-91
2022/09/13 08:03:34;;;;;;;4.45;3.30;;;19.20;99.90;;;;;;6118673;23;20017;-89
2022/09/13 08:06:00;;;;;;;3.60;3.22;;;19.30;99.90;;;;;;6118957;23;20005;-92
2022/09/13 08:08:27;;;;;;;11.70;4.13;;;19.40;99.90;;;;;;6118843;23;20009;-86
2022/09/13 08:10:56;;;;;;;3.17;2.80;;;19.50;99.90;;;;;;6119374;23;20017;-90
2022/09/13 08:13:22;;;;;;;7.07;3.50;;;19.60;99.90;;;;;;6117924;23;20473;-88
2022/09/13 08:15:48;;;;;;;4.72;3.75;;;19.70;99.90;;;;;;6118271;23;19998;-89
2022/09/13 08:18:15;;;;;;;4.47;3.15;;;19.70;99.90;;;;;;6118353;23;20317;-89
2022/09/13 08:20:40;;;;;;;10.20;3.25;;;19.70;99.90;;;;;;6118176;23;20032;-87
2022/09/13 08:23:07;;;;;;;6.15;3.38;;;19.80;99.90;;;;;;6116224;23;20427;-88
2022/09/13 08:25:33;;;;;;;7.20;3.92;;;19.80;99.90;;;;;;6119540;23;20331;-88
2022/09/13 08:28:00;;;;;;;4.82;2.65;;;19.80;99.90;;;;;;6092884;23;20014;-89
2022/09/13 08:30:31;;;;;;;4.65;3.65;;;19.90;99.90;;;;;;6119679;23;20027;-85
2022/09/13 08:33:01;;;;;;;3.88;3.47;;;20.00;99.90;;;;;;6118600;23;20002;-87
2022/09/13 08:35:28;;;;;;;12.23;3.80;;;20.00;99.90;;;;;;6119742;23;20006;-85
2022/09/13 08:38:00;;;;;;;14.85;3.30;;;20.10;99.90;;;;;;6118701;23;20056;-83
2022/09/13 08:40:31;;;;;;;4.07;2.72;;;20.10;99.90;;;;;;6119792;23;20394;-89
2022/09/13 08:43:21;;;;;;;6.75;3.25;;;20.20;99.90;;;;;;6118068;23;20002;-90
2022/09/13 08:46:05;;;;;;;3.28;2.75;;;20.30;99.90;;;;;;6119989;23;20025;-87
2022/09/13 08:48:34;;;;;;;6.25;2.40;;;20.30;99.90;;;;;;6118740;23;20032;-89
2022/09/13 08:51:06;;;;;;;7.15;2.70;;;20.40;99.90;;;;;;6119518;23;20002;-90
2022/09/13 08:53:43;;;;;;;3.83;2.65;;;20.50;99.90;;;;;;6118679;23;20009;-88
2022/09/13 08:56:12;;;;;;;5.57;3.03;;;20.50;99.90;;;;;;6119466;23;20025;-88
2022/09/13 08:59:15;;;;;;;4.15;3.03;;;20.70;99.90;;;;;;6118218;23;20059;-88
2022/09/13 09:02:22;;;;;;;4.00;2.80;;;20.70;99.90;;;;;;6130267;23;20514;-88
2022/09/13 09:05:03;;;;;;;3.65;2.88;;;20.70;99.90;;;;;;6119808;23;20010;-84
2022/09/13 09:07:36;;;;;;;5.43;2.55;;;20.70;99.90;;;;;;6118472;23;20018;-87
2022/09/13 09:10:14;;;;;;;6.10;3.20;;;20.70;99.90;;;;;;6119227;23;20029;-88
2022/09/13 09:13:08;;;;;;;4.20;2.88;;;20.90;99.90;;;;;;6118539;23;20005;-87
2022/09/13 09:15:50;;;;;;;5.30;2.50;;;20.90;99.90;;;;;;6119628;23;20010;-87
2022/09/13 09:18:31;;;;;;;3.55;2.53;;;21.00;99.90;;;;;;6118231;23;20438;-86
2022/09/13 09:21:00;;;;;;;8.80;2.78;;;21.20;99.90;;;;;;6118925;23;20002;-89
2022/09/13 09:23:39;;;;;;;4.70;2.83;;;21.20;99.90;;;;;;6118343;23;20323;-86
2022/09/13 09:26:20;;;;;;;3.97;2.67;;;21.20;99.90;;;;;;6119064;23;20025;-87
2022/09/13 09:29:11;;;;;;;4.93;3.05;;;21.30;99.90;;;;;;6118501;23;20055;-87
2022/09/13 09:31:52;;;;;;;8.30;2.78;;;21.30;99.90;;;;;;6120583;23;20439;-86
2022/09/13 09:34:25;;;;;;;5.95;2.78;;;21.40;99.90;;;;;;6119799;23;20002;-87
2022/09/13 09:37:03;;;;;;;8.90;3.15;;;21.50;99.90;;;;;;6119319;23;20009;-84
2022/09/13 09:39:32;;;;;;;7.88;2.55;;;21.60;99.90;;;;;;6113510;23;20122;-90
2022/09/13 09:41:58;;;;;;;6.25;2.38;;;21.60;99.90;;;;;;6116979;23;20010;-87
2022/09/13 09:44:27;;;;;;;5.80;2.50;;;21.70;99.90;;;;;;6116407;23;20316;-91
2022/09/13 09:47:14;;;;;;;8.20;3.03;;;21.70;99.90;;;;;;6119351;23;19998;-88
2022/09/13 09:50:08;;;;;;;3.63;2.60;;;21.70;99.90;;;;;;6119972;23;20017;-87
2022/09/13 09:53:02;;;;;;;5.22;3.40;;;21.70;99.90;;;;;;6118143;23;20006;-85
2022/09/13 09:55:30;;;;;;;7.97;2.92;;;21.70;99.90;;;;;;6117689;23;20018;-87
2022/09/13 09:58:05;;;;;;;5.90;2.70;;;21.70;99.90;;;;;;6118837;23;20136;-83
2022/09/13 10:00:34;;;;;;;4.63;2.50;;;21.80;99.90;;;;;;6120900;23;20033;-83
2022/09/13 10:03:15;;;;;;;5.70;2.30;;;21.80;99.90;;;;;;6119480;23;20371;-85
2022/09/13 10:05:42;;;;;;;3.17;2.55;;;21.80;99.90;;;;;;6119841;23;20014;-88
2022/09/13 10:08:23;;;;;;;3.92;2.88;;;21.80;99.90;;;;;;6119166;23;20014;-89
2022/09/13 10:10:56;;;;;;;5.88;2.60;;;21.80;99.90;;;;;;6120304;23;20029;-91
2022/09/13 10:13:22;;;;;;;6.07;2.78;;;21.90;99.90;;;;;;6118958;23;20025;-88
2022/09/13 10:15:56;;;;;;;5.78;2.63;;;21.90;99.90;;;;;;6119999;23;20434;-86
2022/09/13 10:18:24;;;;;;;2.92;2.53;;;22.00;99.90;;;;;;6118508;23;20014;-91
2022/09/13 10:21:23;;;;;;;4.70;2.42;;;22.00;99.90;;;;;;6119745;23;20334;-84
2022/09/13 10:23:49;;;;;;;2.95;2.33;;;22.00;99.90;;;;;;6119306;23;19998;-88
2022/09/13 10:26:25;;;;;;;4.35;2.45;;;22.10;99.90;;;;;;6119114;23;20002;-90
2022/09/13 10:29:09;;;;;;;6.20;2.75;;;22.20;99.90;;;;;;6120255;23;20018;-83
2022/09/13 10:31:38;;;;;;;3.95;2.28;;;22.40;99.90;;;;;;6120300;23;20052;-88
2022/09/13 10:34:19;;;;;;;2.10;1.90;;;22.60;99.90;;;;;;6117741;23;20127;-86
2022/09/13 10:36:54;;;;;;;5.38;2.35;;;22.70;99.90;;;;;;6093921;23;20008;-87
2022/09/13 10:39:22;;;;;;;2.67;2.42;;;22.80;99.90;;;;;;6118369;23;20014;-89
2022/09/13 10:41:53;;;;;;;4.28;2.78;;;22.80;99.90;;;;;;6120127;23;20085;-84
2022/09/13 10:44:44;;;;;;;2.97;2.05;;;22.90;99.90;;;;;;6119237;23;20012;-91
2022/09/13 10:47:30;;;;;;;11.80;3.00;;;22.90;99.90;;;;;;6119885;23;20002;-86
2022/09/13 10:50:25;;;;;;;6.80;1.90;;;22.90;99.90;;;;;;6119605;23;20335;-89
2022/09/13 10:52:55;;;;;;;5.53;2.30;;;23.00;99.90;;;;;;6119266;23;20006;-86
2022/09/13 10:55:53;;;;;;;3.90;2.00;;;22.90;99.90;;;;;;6119464;23;20036;-87
2022/09/13 10:58:19;;;;;;;2.50;2.17;;;23.10;99.90;;;;;;6116801;23;20013;-89
2022/09/13 11:01:35;;;;;;;8.23;2.05;;;23.20;99.90;;;;;;6120704;23;20063;-86
2022/09/13 11:04:34;;;;;;;4.53;2.25;;;23.20;99.90;;;;;;6134998;23;20006;-83
2022/09/13 11:07:14;;;;;;;6.03;2.55;;;23.40;99.90;;;;;;6120038;23;20013;-84
2022/09/13 11:09:52;;;;;;;3.92;2.65;;;23.40;99.90;;;;;;6118838;23;20042;-81
2022/09/13 11:12:38;;;;;;;9.13;2.20;;;23.40;99.90;;;;;;6120164;23;20323;-84
2022/09/13 11:15:17;;;;;;;;;;;23.20;99.90;;;;;;6120113;23;20010;-86
2022/09/13 11:18:00;;;;;;;3.03;2.00;;;23.10;99.90;;;;;;6118824;23;19905;-87
2022/09/13 11:20:46;;;;;;;2.95;1.92;;;23.00;99.90;;;;;;6119723;23;20012;-86
2022/09/13 11:23:41;;;;;;;8.25;2.40;;;23.00;99.90;;;;;;6118327;23;20315;-88
2022/09/13 11:26:10;;;;;;;8.10;2.20;;;23.10;99.90;;;;;;6118762;23;19998;-83
2022/09/13 11:28:47;;;;;;;5.40;2.20;;;23.20;99.90;;;;;;6118474;23;20002;-86
2022/09/13 11:31:43;;;;;;;3.92;1.80;;;23.40;99.90;;;;;;6119267;23;20131;-88
2022/09/13 11:34:36;;;;;;;4.20;2.10;;;23.40;99.90;;;;;;6119028;23;20124;-87
2022/09/13 11:37:14;;;;;;;2.88;1.65;;;23.50;99.90;;;;;;6118571;23;20010;-85
2022/09/13 11:39:50;;;;;;;2.85;1.63;;;23.50;99.90;;;;;;6117561;23;20010;-89
2022/09/13 11:42:46;;;;;;;8.95;2.20;;;23.60;99.90;;;;;;6119078;23;20002;-85
2022/09/13 11:45:21;;;;;;;;;;;23.60;99.90;;;;;;6094681;23;20009;-86
2022/09/13 11:48:19;;;;;;;6.03;2.05;;;23.50;99.90;;;;;;6118675;23;19954;-87
2022/09/13 11:51:16;;;;;;;2.55;1.90;;;23.40;99.90;;;;;;6119912;23;19998;-88
2022/09/13 11:53:59;;;;;;;5.35;2.00;;;23.30;99.90;;;;;;6118648;23;19998;-89
2022/09/13 11:56:33;;;;;;;4.90;2.30;;;23.20;99.90;;;;;;6118532;23;20101;-84
2022/09/13 11:59:15;;;;;;;2.92;1.55;;;23.20;99.90;;;;;;6118284;23;19998;-88
2022/09/13 12:01:48;;;;;;;5.57;2.80;;;23.10;99.90;;;;;;6118285;23;20010;-89
2022/09/13 12:04:39;;;;;;;8.15;2.25;;;23.20;99.90;;;;;;6118032;23;20332;-88
2022/09/13 12:07:11;;;;;;;3.95;2.38;;;23.20;99.90;;;;;;6119491;23;20002;-89
2022/09/13 12:09:45;;;;;;;5.55;3.08;;;23.00;99.90;;;;;;6117936;23;20006;-87
2022/09/13 12:12:12;;;;;;;4.10;2.65;;;23.00;99.90;;;;;;6118991;23;20006;-90
2022/09/13 12:14:46;;;;;;;5.28;2.95;;;22.90;99.90;;;;;;6118765;23;20006;-89
2022/09/13 12:17:26;;;;;;;11.23;3.30;;;22.90;99.90;;;;;;6119087;23;20013;-91
2022/09/13 12:19:56;;;;;;;6.00;3.30;;;22.90;99.90;;;;;;6117290;23;20002;-87
2022/09/13 12:22:25;;;;;;;4.70;2.53;;;22.90;99.90;;;;;;6118136;23;20010;-86
2022/09/13 12:24:56;;;;;;;5.57;3.17;;;22.80;99.90;;;;;;6118424;23;20002;-88
2022/09/13 12:27:28;;;;;;;4.25;2.83;;;22.80;99.90;;;;;;6119546;23;19998;-88
2022/09/13 12:30:13;;;;;;;5.35;2.70;;;22.70;99.90;;;;;;6092522;23;20014;-91
2022/09/13 12:32:39;;;;;;;5.33;2.90;;;22.70;99.90;;;;;;6118947;23;19998;-88
2022/09/13 12:35:28;;;;;;;5.97;3.08;;;22.70;99.90;;;;;;6118672;23;20453;-88
2022/09/13 12:38:28;;;;;;;4.60;2.92;;;22.70;99.90;;;;;;6117728;23;20295;-90
2022/09/13 12:41:08;;;;;;;7.30;3.17;;;22.60;99.90;;;;;;6118148;23;20005;-92
2022/09/13 12:44:07;;;;;;;7.07;2.75;;;22.60;99.90;;;;;;6118769;23;20014;-89
2022/09/13 12:46:53;;;;;;;5.65;3.05;;;22.50;99.90;;;;;;6117476;23;20009;-90
2022/09/13 12:49:59;;;;;;;10.98;3.92;;;22.50;99.90;;;;;;6112072;23;20734;-89
2022/09/13 12:52:29;;;;;;;;;;;22.50;99.90;;;;;;6114733;23;20063;-85
2022/09/13 12:55:29;;;;;;;7.80;2.88;;;22.50;99.90;;;;;;6115872;23;19931;-93
2022/09/13 12:58:19;;;;;;;4.55;3.45;;;22.40;99.90;;;;;;6117858;23;20002;-85
2022/09/13 13:00:57;;;;;;;8.98;3.13;;;22.30;99.90;;;;;;6118135;23;20063;-91
2022/09/13 13:03:29;;;;;;;5.80;3.47;;;22.20;99.90;;;;;;6117337;23;20431;-86
2022/09/13 13:06:24;;;;;;;8.68;3.60;;;22.20;99.90;;;;;;6119778;23;20439;-89
2022/09/13 13:08:52;;;;;;;7.37;4.60;;;22.20;99.90;;;;;;6118888;23;20600;-88
2022/09/13 13:11:23;;;;;;;12.85;3.90;;;22.20;99.90;;;;;;6120073;23;20264;-86
2022/09/13 13:14:08;;;;;;;6.90;3.88;;;22.20;99.90;;;;;;6119318;23;20002;-87
2022/09/13 13:16:36;;;;;;;9.40;3.47;;;22.30;99.90;;;;;;6120643;23;20433;-91
2022/09/13 13:19:32;;;;;;;5.55;3.55;;;22.40;99.90;;;;;;6119056;23;20446;-90
2022/09/13 13:22:17;;;;;;;;;;;22.40;99.90;;;;;;6119624;23;20491;-88
2022/09/13 13:24:47;;;;;;;7.43;3.53;;;22.50;99.90;;;;;;6118733;23;20189;-90